Time;durP1;ratioP1;P1;durP2;ratioP2;P2;SDS_P1;SDS_P2;PMS_P1;PMS_P2;Temp;Humidity;BMP_temperature;BMP_pressure;BME280_temperature;BME280_humidity;BME280_pressure;Samples;Min_cycle;Max_cycle;Signal;HPM_P1;HPM_P2
2022/07/02 00:02:21;;;;;;;14.60;7.55;;;;;;;;;;5014176;28;20022;-84
2022/07/02 00:04:52;;;;;;;12.48;7.97;;;;;;;;;;5012719;28;20034;-83
2022/07/02 00:07:18;;;;;;;15.98;8.20;;;;;;;;;;5012911;28;20543;-83
2022/07/02 00:09:44;;;;;;;13.40;8.10;;;;;;;;;;5012553;28;20430;-83
2022/07/02 00:12:11;;;;;;;13.65;8.80;;;;;;;;;;5012433;28;20076;-84
2022/07/02 00:14:37;;;;;;;14.70;9.45;;;;;;;;;;5012380;28;20038;-84
2022/07/02 00:17:03;;;;;;;12.10;7.65;;;;;;;;;;5012438;28;20026;-83
2022/07/02 00:19:30;;;;;;;14.20;7.97;;;;;;;;;;5012344;28;20022;-85
2022/07/02 00:21:57;;;;;;;12.75;7.03;;;;;;;;;;5012455;28;20021;-83
2022/07/02 00:24:23;;;;;;;14.88;8.27;;;;;;;;;;5012211;28;20366;-83
2022/07/02 00:26:59;;;;;;;12.10;8.00;;;;;;;;;;5012114;28;20022;-83
2022/07/02 00:29:30;;;;;;;16.60;8.90;;;;;;;;;;5012835;28;20029;-83
2022/07/02 00:31:57;;;;;;;12.07;7.57;;;;;;;;;;5011694;28;20022;-83
2022/07/02 00:34:24;;;;;;;12.70;8.45;;;;;;;;;;4995946;28;20034;-83
2022/07/02 00:36:50;;;;;;;12.75;7.50;;;;;;;;;;5005205;28;20477;-83
2022/07/02 00:39:16;;;;;;;15.55;8.90;;;;;;;;;;5008761;28;20023;-84
2022/07/02 00:41:43;;;;;;;12.30;7.90;;;;;;;;;;5000162;28;20366;-84
2022/07/02 00:44:09;;;;;;;19.08;7.32;;;;;;;;;;5009118;28;20028;-84
2022/07/02 00:46:35;;;;;;;13.85;7.10;;;;;;;;;;5012136;28;20018;-83
2022/07/02 00:49:01;;;;;;;10.82;7.20;;;;;;;;;;5009895;28;20157;-84
2022/07/02 00:51:28;;;;;;;11.35;7.57;;;;;;;;;;5012007;28;20041;-83
2022/07/02 00:53:54;;;;;;;14.30;7.90;;;;;;;;;;5011873;28;20080;-83
2022/07/02 00:56:20;;;;;;;16.58;7.50;;;;;;;;;;4998011;28;20026;-83
2022/07/02 00:58:47;;;;;;;14.02;7.70;;;666.10;1203.20;;;;;;5011913;28;20026;-85
2022/07/02 01:01:13;;;;;;;16.45;7.82;;;666.00;1203.20;;;;;;5011862;28;20026;-84
2022/07/02 01:03:42;;;;;;;14.75;7.97;;;666.10;1177.60;;;;;;5011547;28;20030;-83
2022/07/02 01:06:07;;;;;;;17.80;10.45;;;666.20;1177.60;;;;;;5011709;28;20022;-83
2022/07/02 01:11:19;;;;;;;14.63;9.63;;;;;;;;;;5012579;28;20041;-83
2022/07/02 01:13:45;;;;;;;14.65;8.45;;;;;;;;;;5011606;28;20124;-81
2022/07/02 01:16:11;;;;;;;14.93;9.07;;;;;;;;;;5011349;28;20026;-83
2022/07/02 01:18:37;;;;;;;11.65;7.75;;;;;;;;;;5011526;28;20303;-83
2022/07/02 01:21:04;;;;;;;19.42;10.43;;;;;;;;;;5009334;28;20026;-83
2022/07/02 01:23:30;;;;;;;20.95;11.43;;;;;;;;;;4997556;28;20032;-82
2022/07/02 01:25:56;;;;;;;18.05;10.00;;;;;;;;;;5010315;28;20465;-81
2022/07/02 01:28:23;;;;;;;19.02;8.38;;;;;;;;;;4996176;28;20053;-81
2022/07/02 01:30:50;;;;;;;14.05;7.90;;;;;;;;;;5009486;28;20028;-81
2022/07/02 01:33:16;;;;;;;13.23;8.43;;;;;;;;;;5010727;28;20524;-81
2022/07/02 01:35:42;;;;;;;11.82;7.88;;;;;;;;;;5010987;28;20022;-81
2022/07/02 01:38:08;;;;;;;13.82;8.75;;;;;;;;;;5010999;28;20056;-81
2022/07/02 01:40:35;;;;;;;16.42;8.95;;;;;;;;;;5011421;28;20030;-81
2022/07/02 01:43:01;;;;;;;14.25;8.48;;;;;;;;;;5015163;28;20057;-81
2022/07/02 01:45:27;;;;;;;12.85;7.57;;;;;;;;;;5016263;28;20026;-81
2022/07/02 01:47:53;;;;;;;11.82;7.60;;;;;;;;;;5014962;28;20025;-81
2022/07/02 01:50:19;;;;;;;17.80;8.05;;;;;;;;;;5014790;28;20049;-81
2022/07/02 01:52:45;;;;;;;25.95;9.00;;;;;;;;;;5014742;28;20057;-82
2022/07/02 01:55:11;;;;;;;14.60;7.88;;;;;;;;;;5014978;28;20022;-81
2022/07/02 01:57:37;;;;;;;11.43;8.77;;;;;;;;;;5014738;28;20061;-82
2022/07/02 02:00:07;;;;;;;18.55;8.75;;;;;;;;;;5014945;28;20021;-81
2022/07/02 02:02:33;;;;;;;18.60;10.35;;;;;;;;;;5014059;28;20366;-83
2022/07/02 02:04:59;;;;;;;17.05;9.40;;;;;;;;;;4998370;28;20027;-82
2022/07/02 02:07:26;;;;;;;12.77;8.50;;;;;;;;;;5007960;28;20057;-81
2022/07/02 02:09:53;;;;;;;14.48;8.38;;;;;;;;;;5014409;28;20432;-83
2022/07/02 02:12:19;;;;;;;14.25;9.05;;;;;;;;;;5014684;28;20025;-82
2022/07/02 02:14:45;;;;;;;14.18;8.93;;;;;;;;;;4997904;28;20022;-81
2022/07/02 02:17:11;;;;;;;14.95;8.43;;;;;;;;;;5003718;28;20564;-82
2022/07/02 02:19:37;;;;;;;12.85;9.13;;;;;;;;;;5014276;28;20527;-82
2022/07/02 02:22:03;;;;;;;18.13;9.45;;;614.50;1664.00;;;;;;5014487;28;20044;-82
2022/07/02 02:24:29;;;;;;;18.60;10.02;;;614.50;1689.60;;;;;;5014408;28;20489;-84
2022/07/02 02:26:54;;;;;;;18.75;9.38;;;589.70;1715.20;;;;;;5014486;28;20032;-83
2022/07/02 02:29:21;;;;;;;19.15;9.98;;;589.70;1715.20;;;;;;5014426;28;20473;-82
2022/07/02 02:31:47;;;;;;;13.98;10.38;;;;;;;;;;5014514;28;20124;-82
2022/07/02 02:34:13;;;;;;;12.57;9.85;;;;;;;;;;5013911;28;20026;-82
2022/07/02 02:36:39;;;;;;;14.38;10.50;;;615.10;1561.60;;;;;;5011082;28;20022;-82
2022/07/02 02:39:05;;;;;;;15.30;9.00;;;;;;;;;;5014356;28;20017;-82
2022/07/02 02:41:31;;;;;;;19.75;9.60;;;;;;;;;;5014338;28;20366;-83
2022/07/02 02:43:57;;;;;;;14.80;10.13;;;640.20;1433.60;;;;;;5012740;28;20026;-82
2022/07/02 02:46:23;;;;;;;15.25;9.57;;;640.20;1433.60;;;;;;4998604;28;20034;-83
2022/07/02 02:48:48;;;;;;;16.00;8.77;;;640.20;1408.00;;;;;;5014368;28;20380;-82
2022/07/02 02:51:15;;;;;;;14.68;8.35;;;;;;;;;;5013663;28;20053;-82
2022/07/02 02:53:42;;;;;;;15.05;10.05;;;615.10;1459.20;;;;;;5013191;28;20391;-82
2022/07/02 02:56:08;;;;;;;20.17;9.88;;;614.80;1510.40;;;;;;5013658;28;20029;-83
2022/07/02 02:58:34;;;;;;;14.07;10.25;;;614.40;1612.80;;;;;;5014336;28;20389;-82
2022/07/02 03:01:00;;;;;;;13.75;9.07;;;589.40;1715.20;;;;;;5013957;28;20022;-82
2022/07/02 03:03:26;;;;;;;17.45;9.65;;;589.10;1766.40;;;;;;5014111;28;20168;-83
2022/07/02 03:05:52;;;;;;;14.73;8.25;;;589.20;1766.40;;;;;;5013911;28;20022;-81
2022/07/02 03:08:18;;;;;;;14.27;9.73;;;589.20;1792.00;;;;;;4999782;28;20109;-80
2022/07/02 03:10:44;;;;;;;18.02;8.27;;;589.00;1817.60;;;;;;5013545;28;20033;-80
2022/07/02 03:13:10;;;;;;;15.30;8.27;;;563.80;1894.40;;;;;;5013237;28;20397;-81
2022/07/02 03:15:36;;;;;;;13.68;8.85;;;563.50;1996.80;;;;;;5004099;28;20026;-81
2022/07/02 03:18:02;;;;;;;15.25;9.77;;;563.50;1996.80;;;;;;5008623;28;20092;-82
2022/07/02 03:20:28;;;;;;;14.13;9.82;;;563.40;1996.80;;;;;;5013617;28;20045;-83
2022/07/02 03:22:53;;;;;;;12.20;9.45;;;563.90;1894.40;;;;;;5013393;28;20413;-84
2022/07/02 03:25:19;;;;;;;13.45;9.48;;;564.10;1868.80;;;;;;5013936;28;20022;-82
2022/07/02 03:27:45;;;;;;;17.42;11.18;;;588.90;1894.40;;;;;;5013267;28;20022;-82
2022/07/02 03:30:11;;;;;;;16.45;10.82;;;;;;;;;;5007946;28;20020;-82
2022/07/02 03:32:37;;;;;;;13.00;9.85;;;;;;;;;;5013306;28;20014;-82
2022/07/02 03:35:03;;;;;;;17.27;9.38;;;;;;;;;;5013379;28;20149;-82
2022/07/02 03:37:29;;;;;;;12.93;9.27;;;;;;;;;;5014363;28;20014;-82
2022/07/02 03:39:55;;;;;;;16.77;9.07;;;;;;;;;;5013130;28;20025;-83
2022/07/02 03:42:22;;;;;;;12.98;8.93;;;;;;;;;;5011051;28;20385;-83
2022/07/02 03:44:48;;;;;;;9.73;8.18;;;;;;;;;;4998660;28;20025;-82
2022/07/02 03:47:14;;;;;;;20.85;9.38;;;;;;;;;;4994000;28;20022;-84
2022/07/02 03:49:40;;;;;;;13.52;9.75;;;;;;;;;;5012820;28;20125;-83
2022/07/02 03:52:06;;;;;;;15.25;9.30;;;;;;;;;;5013297;28;20061;-83
2022/07/02 03:54:32;;;;;;;13.73;9.07;;;;;;;;;;5012786;28;20040;-82
2022/07/02 03:56:58;;;;;;;17.17;9.32;;;;;;;;;;5013071;28;20117;-83
2022/07/02 03:59:25;;;;;;;11.50;8.75;;;;;;;;;;5012982;28;20057;-84
2022/07/02 04:01:52;;;;;;;13.60;9.05;;;615.20;1612.80;;;;;;5012846;28;20025;-83
2022/07/02 04:04:19;;;;;;;17.27;9.63;;;615.10;1612.80;;;;;;5009225;28;20109;-82
2022/07/02 04:06:45;;;;;;;13.40;9.38;;;;;;;;;;5012939;28;20026;-84
2022/07/02 04:09:11;;;;;;;15.18;9.32;;;;;;;;;;4999792;28;20466;-83
2022/07/02 04:11:37;;;;;;;15.40;9.70;;;;;;;;;;5012183;28;20061;-83
2022/07/02 04:14:04;;;;;;;22.73;10.90;;;;;;;;;;5012531;28;20073;-82
2022/07/02 04:16:30;;;;;;;13.82;10.45;;;;;;;;;;5009145;28;20018;-82
2022/07/02 04:18:57;;;;;;;15.73;10.43;;;;;;;;;;5002319;28;20018;-82
2022/07/02 04:21:23;;;;;;;24.00;12.50;;;;;;;;;;5012343;28;20076;-82
2022/07/02 04:23:49;;;;;;;13.30;10.55;;;;;;;;;;5004903;28;20053;-82
2022/07/02 04:26:15;;;;;;;26.15;12.82;;;;;;;;;;5006056;28;20021;-82
2022/07/02 04:28:41;;;;;;;24.38;12.23;;;;;;;;;;5011800;28;20488;-81
2022/07/02 04:31:06;;;;;;;24.20;13.52;;;640.40;1561.60;;;;;;5012177;28;20030;-86
2022/07/02 04:33:32;;;;;;;24.48;11.80;;;640.30;1587.20;;;;;;5012716;28;20048;-87
2022/07/02 04:35:58;;;;;;;26.45;11.90;;;;;;;;;;5012559;28;20021;-89
2022/07/02 04:38:24;;;;;;;24.88;12.00;;;;;;;;;;5012966;28;20018;-89
2022/07/02 04:40:50;;;;;;;25.08;12.30;;;;;;;;;;4999182;28;20024;-88
2022/07/02 04:43:16;;;;;;;34.20;13.55;;;;;;;;;;5012613;28;20114;-86
2022/07/02 04:45:42;;;;;;;29.92;11.95;;;;;;;;;;5012367;28;20017;-86
2022/07/02 04:48:08;;;;;;;21.48;11.52;;;;;;;;;;5012466;28;20097;-88
2022/07/02 04:50:34;;;;;;;24.30;12.30;;;;;;;;;;4998686;28;20141;-87
2022/07/02 04:53:00;;;;;;;24.38;11.75;;;;;;;;;;4998806;28;20038;-86
2022/07/02 04:55:27;;;;;;;35.60;13.35;;;;;;;;;;5000798;28;20162;-85
2022/07/02 04:57:53;;;;;;;26.88;12.43;;;;;;;;;;5007069;28;20023;-88
2022/07/02 05:00:19;;;;;;;23.42;12.38;;;;;;;;;;5002606;28;20045;-88
2022/07/02 05:02:45;;;;;;;26.48;12.27;;;;;;;;;;5010976;28;20033;-89
2022/07/02 05:05:11;;;;;;;27.85;10.85;;;;;;;;;;5001059;28;20022;-89
2022/07/02 05:07:37;;;;;;;21.00;11.82;;;;;;;;;;5012581;28;20018;-90
2022/07/02 05:10:03;;;;;;;26.48;12.02;;;;;;;;;;5012191;28;20040;-86
2022/07/02 05:12:29;;;;;;;26.92;9.38;;;;;;;;;;5012323;28;20029;-86
2022/07/02 05:14:55;;;;;;;19.75;5.40;;;;;;;;;;4998219;28;20014;-87
2022/07/02 05:17:21;;;;;;;25.88;9.65;;;;;;;;;;5012045;28;20109;-88
2022/07/02 05:19:47;;;;;;;25.50;10.80;;;;;;;;;;5011448;28;20026;-89
2022/07/02 05:22:13;;;;;;;20.88;9.15;;;;;;;;;;5012652;28;20445;-89
2022/07/02 05:24:39;;;;;;;21.55;7.85;;;;;;;;;;5011938;28;20030;-89
2022/07/02 05:27:05;;;;;;;16.20;8.20;;;;;;;;;;4999213;28;20040;-87
2022/07/02 05:29:31;;;;;;;17.70;7.53;;;;;;;;;;5011986;28;20504;-87
2022/07/02 05:31:57;;;;;;;22.73;8.07;;;;;;;;;;5011906;28;20022;-88
2022/07/02 05:34:23;;;;;;;17.90;6.97;;;;;;;;;;5011901;28;20072;-87
2022/07/02 05:36:50;;;;;;;23.52;7.30;;;;;;;;;;5008499;28;20026;-86
2022/07/02 05:39:16;;;;;;;21.08;7.75;;;;;;;;;;5006075;28;20489;-86
2022/07/02 05:41:42;;;;;;;12.40;5.55;;;;;;;;;;4992172;28;20030;-87
2022/07/02 05:44:08;;;;;;;20.23;7.15;;;;;;;;;;5011579;28;20053;-90
2022/07/02 05:46:34;;;;;;;21.98;6.45;;;;;;;;;;5003207;28;20045;-86
2022/07/02 05:49:00;;;;;;;12.82;6.78;;;;;;;;;;4993214;28;20026;-81
2022/07/02 05:51:26;;;;;;;19.27;6.78;;;;;;;;;;5012137;28;20038;-79
2022/07/02 05:53:52;;;;;;;9.60;5.18;;;;;;;;;;5012479;28;20038;-86
2022/07/02 05:56:18;;;;;;;11.27;6.05;;;;;;;;;;5011465;28;20014;-87
2022/07/02 05:58:44;;;;;;;16.60;5.35;;;;;;;;;;5011598;28;20025;-88
2022/07/02 06:01:10;;;;;;;16.08;6.93;;;;;;;;;;5012332;28;20492;-83
2022/07/02 06:03:36;;;;;;;17.83;6.15;;;;;;;;;;5009911;28;20014;-83
2022/07/02 06:08:55;;;;;;;11.43;5.82;;;;;;;;;;5003826;28;20057;-86
2022/07/02 06:11:21;;;;;;;23.55;5.55;;;;;;;;;;5011292;28;20041;-89
2022/07/02 06:13:47;;;;;;;16.00;5.80;;;;;;;;;;5010065;28;20038;-79
2022/07/02 06:16:15;;;;;;;10.18;4.30;;;;;;;;;;5010525;28;20076;-79
2022/07/02 06:18:41;;;;;;;18.05;5.13;;;;;;;;;;4996108;28;20026;-78
2022/07/02 06:21:07;;;;;;;13.85;6.43;;;;;;;;;;5004895;28;20385;-77
2022/07/02 06:23:33;;;;;;;12.65;5.45;;;;;;;;;;4999395;28;20022;-77
2022/07/02 06:25:59;;;;;;;16.98;4.68;;;;;;;;;;4995549;28;20027;-77
2022/07/02 06:28:25;;;;;;;16.92;4.53;;;;;;;;;;5009428;28;20029;-77
2022/07/02 06:30:54;;;;;;;16.92;5.20;;;;;;;;;;4997259;28;20081;-78
2022/07/02 06:33:20;;;;;;;11.98;5.00;;;;;;;;;;5002533;28;20085;-77
2022/07/02 06:35:46;;;;;;;20.00;6.18;;;;;;;;;;5006389;28;20076;-79
2022/07/02 06:38:12;;;;;;;21.38;5.07;;;;;;;;;;5010011;28;20022;-78
2022/07/02 06:40:38;;;;;;;17.27;5.40;;;;;;;;;;5001369;28;20049;-77
2022/07/02 06:43:05;;;;;;;11.93;5.68;;;;;;;;;;5002425;28;20014;-77
2022/07/02 06:45:31;;;;;;;16.92;6.43;;;;;;;;;;5007663;28;20026;-78
2022/07/02 06:47:58;;;;;;;18.30;5.65;;;;;;;;;;5010632;28;20138;-80
2022/07/02 06:50:24;;;;;;;21.35;5.00;;;;;;;;;;5008280;28;20137;-77
2022/07/02 06:52:50;;;;;;;14.65;6.18;;;;;;;;;;5007928;28;20069;-79
2022/07/02 06:55:18;;;;;;;15.38;7.68;;;;;;;;;;5006155;28;20097;-78
2022/07/02 06:57:44;;;;;;;16.73;6.95;;;;;;;;;;5000823;28;20077;-77
2022/07/02 07:00:10;;;;;;;11.38;6.28;;;;;;;;;;5014434;28;20532;-79
2022/07/02 07:02:36;;;;;;;17.23;7.35;;;;;;;;;;5000541;28;20027;-78
2022/07/02 07:05:02;;;;;;;16.15;6.20;;;;;;;;;;5000476;28;20097;-78
2022/07/02 07:07:29;;;;;;;16.33;5.43;;;;;;;;;;5014519;28;20018;-77
2022/07/02 07:09:56;;;;;;;15.70;6.55;;;;;;;;;;5000365;28;20068;-77
2022/07/02 07:12:22;;;;;;;22.27;6.82;;;;;;;;;;5014497;28;20025;-78
2022/07/02 07:14:48;;;;;;;20.88;6.05;;;;;;;;;;5013928;28;20038;-77
2022/07/02 07:17:15;;;;;;;16.73;5.97;;;;;;;;;;5013992;28;20025;-78
2022/07/02 07:19:41;;;;;;;17.65;6.00;;;;;;;;;;5013936;28;20018;-77
2022/07/02 07:22:09;;;;;;;16.17;6.20;;;716.80;998.40;;;;;;5014269;28;20030;-78
2022/07/02 07:24:34;;;;;;;19.13;6.03;;;716.90;972.80;;;;;;5012750;28;20030;-78
2022/07/02 07:27:00;;;;;;;22.33;8.38;;;716.80;972.80;;;;;;5012663;28;20497;-78
2022/07/02 07:29:26;;;;;;;11.77;6.13;;;717.10;947.20;;;;;;5012630;28;20033;-78
2022/07/02 07:31:52;;;;;;;15.55;6.03;;;717.30;921.60;;;;;;5012640;28;20482;-78
2022/07/02 07:34:18;;;;;;;20.52;6.50;;;;;;;;;;4999070;28;20044;-77
2022/07/02 07:36:44;;;;;;;20.42;6.63;;;717.50;896.00;;;;;;5014065;28;20075;-78
2022/07/02 07:39:10;;;;;;;15.88;6.35;;;717.30;896.00;;;;;;5013356;28;20055;-80
2022/07/02 07:41:36;;;;;;;20.25;7.05;;;717.30;921.60;;;;;;5013507;28;20029;-79
2022/07/02 07:44:03;;;;;;;20.15;5.72;;;717.50;870.40;;;;;;5012339;28;20036;-79
2022/07/02 07:46:29;;;;;;;17.73;6.38;;;;;;;;;;5009135;28;20113;-78
2022/07/02 07:48:56;;;;;;;17.48;7.03;;;;;;;;;;5008054;28;20116;-78
2022/07/02 07:51:22;;;;;;;18.00;6.47;;;;;;;;;;5012020;28;20049;-78
2022/07/02 07:53:51;;;;;;;20.65;7.60;;;;;;;;;;5001192;28;20045;-78
2022/07/02 07:56:20;;;;;;;20.35;7.97;;;;;;;;;;4998152;28;20042;-78
2022/07/02 07:58:46;;;;;;;14.95;5.85;;;;;;;;;;5012096;28;20024;-79
2022/07/02 08:01:13;;;;;;;14.48;5.38;;;;;;;;;;5008620;28;20038;-77
2022/07/02 08:03:39;;;;;;;15.70;6.15;;;;;;;;;;5007237;28;20018;-78
2022/07/02 08:06:05;;;;;;;16.83;5.65;;;;;;;;;;5008842;28;20026;-78
2022/07/02 08:08:31;;;;;;;22.88;6.47;;;;;;;;;;4993934;28;20061;-77
2022/07/02 08:10:57;;;;;;;20.83;6.70;;;;;;;;;;4996807;28;20389;-78
2022/07/02 08:13:23;;;;;;;15.07;6.15;;;;;;;;;;5013315;28;20064;-77
2022/07/02 08:15:49;;;;;;;12.90;6.15;;;;;;;;;;5013374;28;20017;-78
2022/07/02 08:18:15;;;;;;;14.63;6.10;;;;;;;;;;5008286;28;20053;-78
2022/07/02 08:20:41;;;;;;;15.68;5.20;;;;;;;;;;5003751;28;20018;-77
2022/07/02 08:23:07;;;;;;;16.25;6.20;;;;;;;;;;5011586;28;20067;-78
2022/07/02 08:25:34;;;;;;;15.82;5.53;;;;;;;;;;5011773;28;20022;-78
2022/07/02 08:28:00;;;;;;;14.13;5.63;;;;;;;;;;5011416;28;20148;-78
2022/07/02 08:30:26;;;;;;;12.50;4.20;;;;;;;;;;5012596;28;20037;-77
2022/07/02 08:32:54;;;;;;;14.50;5.22;;;;;;;;;;5012706;28;20026;-77
2022/07/02 08:35:20;;;;;;;15.95;5.80;;;;;;;;;;4998525;28;20027;-77
2022/07/02 08:37:46;;;;;;;9.20;5.53;;;;;;;;;;5011436;28;20045;-77
2022/07/02 08:40:12;;;;;;;10.75;4.65;;;;;;;;;;5012765;28;20101;-78
2022/07/02 08:42:40;;;;;;;20.55;5.85;;;;;;;;;;4994203;28;20073;-78
2022/07/02 08:45:08;;;;;;;11.60;4.65;;;;;;;;;;4999357;28;20109;-77
2022/07/02 08:47:35;;;;;;;11.70;4.78;;;;;;;;;;5008645;28;20014;-78
2022/07/02 08:50:02;;;;;;;16.10;4.13;;;;;;;;;;5019296;28;20088;-78
2022/07/02 08:52:28;;;;;;;13.93;5.10;;;;;;;;;;5012641;28;20072;-77
2022/07/02 08:54:55;;;;;;;14.20;4.75;;;;;;;;;;4999004;28;20037;-78
2022/07/02 08:57:22;;;;;;;16.35;5.95;;;;;;;;;;5025595;28;20071;-78
2022/07/02 08:59:48;;;;;;;17.15;6.10;;;;;;;;;;5000649;28;20104;-77
2022/07/02 09:02:15;;;;;;;11.15;4.93;;;;;;;;;;5002462;28;20165;-78
2022/07/02 09:04:42;;;;;;;11.98;4.38;;;;;;;;;;5016225;28;20021;-78
2022/07/02 09:07:12;;;;;;;15.27;4.93;;;;;;;;;;5010573;28;20028;-79
2022/07/02 09:09:41;;;;;;;8.98;5.30;;;;;;;;;;5031663;28;20530;-80
2022/07/02 09:12:08;;;;;;;21.90;5.28;;;;;;;;;;5001170;28;20094;-79
2022/07/02 09:14:34;;;;;;;9.18;4.80;;;;;;;;;;4999705;28;20033;-80
2022/07/02 09:17:00;;;;;;;17.27;4.70;;;;;;;;;;5011136;28;20049;-80
2022/07/02 09:19:27;;;;;;;16.23;5.85;;;;;;;;;;5011794;28;20148;-80
2022/07/02 09:21:53;;;;;;;12.75;4.75;;;;;;;;;;5010882;28;20473;-79
2022/07/02 09:24:28;;;;;;;15.00;4.72;;;;;;;;;;5009682;28;20591;-80
2022/07/02 09:27:05;;;;;;;9.32;4.15;;;;;;;;;;5014701;28;20034;-81
2022/07/02 09:29:43;;;;;;;15.77;5.00;;;;;;;;;;5014247;28;20542;-81
2022/07/02 09:32:10;;;;;;;12.18;5.30;;;;;;;;;;5010445;28;20049;-82
2022/07/02 09:34:36;;;;;;;7.32;4.78;;;;;;;;;;5013680;28;20025;-80
2022/07/02 09:37:11;;;;;;;16.73;5.95;;;;;;;;;;5013862;28;20104;-81
2022/07/02 09:39:39;;;;;;;7.07;5.55;;;742.80;896.00;;;;;;5010712;28;20096;-80
2022/07/02 09:42:05;;;;;;;15.85;7.63;;;742.70;896.00;;;;;;5007078;28;20440;-80
2022/07/02 09:44:31;;;;;;;15.18;5.93;;;717.50;972.80;;;;;;5006621;28;20103;-80
2022/07/02 09:46:57;;;;;;;16.27;6.45;;;742.40;972.80;;;;;;5003223;28;20053;-81
2022/07/02 09:49:23;;;;;;;7.50;4.65;;;717.10;1024.00;;;;;;5004876;28;20079;-82
2022/07/02 09:51:53;;;;;;;15.63;5.57;;;716.90;1049.60;;;;;;5005791;28;20366;-81
2022/07/02 09:54:20;;;;;;;20.45;7.05;;;;;;;;;;5007772;28;20037;-81
2022/07/02 09:56:55;;;;;;;16.05;5.20;;;717.50;972.80;;;;;;5001435;28;20024;-81
2022/07/02 09:59:22;;;;;;;12.52;5.07;;;717.40;947.20;;;;;;5017459;28;20029;-80
2022/07/02 10:01:48;;;;;;;12.10;5.75;;;717.30;972.80;;;;;;5011864;28;20556;-81
2022/07/02 10:04:14;;;;;;;12.02;4.80;;;717.30;947.20;;;;;;5003034;28;20033;-81
2022/07/02 10:06:43;;;;;;;18.27;5.68;;;717.20;947.20;;;;;;5008689;28;20026;-81
2022/07/02 10:09:11;;;;;;;15.27;5.55;;;717.50;921.60;;;;;;5020981;28;20028;-82
2022/07/02 10:11:37;;;;;;;7.97;5.15;;;717.30;921.60;;;;;;5026475;28;20018;-82
2022/07/02 10:14:04;;;;;;;12.05;5.38;;;717.30;947.20;;;;;;5011182;28;20481;-83
2022/07/02 10:16:31;;;;;;;11.68;5.20;;;717.40;921.60;;;;;;5022273;28;20022;-82
2022/07/02 10:19:01;;;;;;;18.00;5.28;;;742.50;921.60;;;;;;5017782;28;20025;-81
2022/07/02 10:21:29;;;;;;;11.68;5.45;;;742.50;896.00;;;;;;5014369;28;20029;-81
2022/07/02 10:23:56;;;;;;;15.90;5.30;;;742.60;896.00;;;;;;5009242;28;20033;-82
2022/07/02 10:26:22;;;;;;;11.48;5.45;;;742.40;896.00;;;;;;5012152;28;20026;-82
2022/07/02 10:28:49;;;;;;;16.00;5.57;;;;;;;;;;5005833;28;20022;-82
2022/07/02 10:31:19;;;;;;;17.80;5.93;;;;;;;;;;5001400;28;20477;-82
2022/07/02 10:33:51;;;;;;;15.00;5.50;;;;;;;;;;5014009;28;20042;-82
2022/07/02 10:36:18;;;;;;;8.70;5.57;;;;;;;;;;5016813;28;20021;-82
2022/07/02 10:38:46;;;;;;;15.85;6.45;;;;;;;;;;5001661;28;20022;-83
2022/07/02 10:41:12;;;;;;;16.23;6.72;;;;;;;;;;5015883;28;20603;-82
2022/07/02 10:43:39;;;;;;;10.43;5.53;;;;;;;;;;5016607;28;20026;-82
2022/07/02 10:46:10;;;;;;;11.40;6.20;;;;;;;;;;5017067;28;20024;-83
2022/07/02 10:48:46;;;;;;;8.73;5.80;;;;;;;;;;5016016;28;20530;-82
2022/07/02 10:51:26;;;;;;;11.75;5.18;;;;;;;;;;5016644;28;20136;-83
2022/07/02 10:53:56;;;;;;;8.60;5.53;;;;;;;;;;5017271;28;20591;-82
2022/07/02 10:56:23;;;;;;;14.13;5.72;;;;;;;;;;5003136;28;20384;-83
2022/07/02 10:58:50;;;;;;;15.95;6.03;;;;;;;;;;5017077;28;20534;-83
2022/07/02 11:01:17;;;;;;;18.73;5.57;;;;;;;;;;5016845;28;20044;-83
2022/07/02 11:03:59;;;;;;;9.60;5.30;;;;;;;;;;5016938;28;20376;-83
2022/07/02 11:06:25;;;;;;;17.13;6.07;;;;;;;;;;4999118;28;20033;-82
2022/07/02 11:08:53;;;;;;;9.82;5.28;;;;;;;;;;5007300;28;20029;-82
2022/07/02 11:11:19;;;;;;;17.17;6.28;;;;;;;;;;5016765;28;20511;-82
2022/07/02 11:13:49;;;;;;;9.00;5.03;;;;;;;;;;5016159;28;20190;-82
2022/07/02 11:16:20;;;;;;;17.00;6.22;;;;;;;;;;5016714;28;20026;-82
2022/07/02 11:18:47;;;;;;;11.57;5.47;;;;;;;;;;5013374;28;20022;-81
2022/07/02 11:21:13;;;;;;;16.05;6.40;;;;;;;;;;5010771;28;20036;-82
2022/07/02 11:23:40;;;;;;;15.32;5.90;;;;;;;;;;5013174;28;20018;-83
2022/07/02 11:26:07;;;;;;;19.73;6.07;;;;;;;;;;5009111;28;20033;-84
2022/07/02 11:28:34;;;;;;;15.57;6.30;;;;;;;;;;5016559;28;20148;-83
2022/07/02 11:31:02;;;;;;;12.88;4.88;;;;;;;;;;5012958;28;20029;-84
2022/07/02 11:33:28;;;;;;;10.50;5.40;;;;;;;;;;5009826;28;20080;-83
2022/07/02 11:35:54;;;;;;;10.88;5.15;;;;;;;;;;5016038;28;20028;-83
2022/07/02 11:38:21;;;;;;;11.70;5.63;;;;;;;;;;5013116;28;20057;-82
2022/07/02 11:40:47;;;;;;;10.32;5.55;;;;;;;;;;5013783;28;20043;-82
2022/07/02 11:43:14;;;;;;;16.42;6.22;;;;;;;;;;5016442;28;20017;-83
2022/07/02 11:45:44;;;;;;;17.02;5.80;;;;;;;;;;5014353;28;20621;-83
2022/07/02 11:48:20;;;;;;;10.52;5.32;;;;;;;;;;5016104;28;20057;-82
2022/07/02 11:50:55;;;;;;;12.88;5.47;;;;;;;;;;5014108;28;20099;-82
2022/07/02 11:53:21;;;;;;;13.63;5.10;;;;;;;;;;5005086;28;20033;-83
2022/07/02 11:55:47;;;;;;;12.10;5.65;;;;;;;;;;5002210;28;20473;-82
2022/07/02 11:58:15;;;;;;;13.82;5.05;;;;;;;;;;5015962;28;20385;-83
2022/07/02 12:00:44;;;;;;;9.68;5.70;;;;;;;;;;5015719;28;20014;-83
2022/07/02 12:03:13;;;;;;;16.23;5.97;;;;;;;;;;5010331;28;20029;-84
2022/07/02 12:05:50;;;;;;;12.68;7.20;;;;;;;;;;5008252;28;20192;-83
2022/07/02 12:08:16;;;;;;;10.60;5.35;;;;;;;;;;5015704;28;20109;-83
2022/07/02 12:10:42;;;;;;;13.35;5.32;;;;;;;;;;5004029;28;20528;-83
2022/07/02 12:13:10;;;;;;;12.90;6.07;;;;;;;;;;4996408;28;20488;-84
2022/07/02 12:15:47;;;;;;;16.83;5.65;;;;;;;;;;5007283;28;20021;-83
2022/07/02 12:18:17;;;;;;;15.82;5.63;;;;;;;;;;5015031;28;20021;-81
2022/07/02 12:20:43;;;;;;;11.02;5.45;;;;;;;;;;5011621;28;20030;-80
2022/07/02 12:23:09;;;;;;;9.25;5.38;;;;;;;;;;5012891;28;20104;-81
2022/07/02 12:25:46;;;;;;;11.75;5.00;;;768.80;716.80;;;;;;5002635;28;20022;-82
2022/07/02 12:30:56;;;;;;;9.80;5.22;;;768.50;768.00;;;;;;5033086;28;20032;-81
2022/07/02 12:33:34;;;;;;;13.57;6.00;;;768.80;768.00;;;;;;5012524;28;20041;-81
2022/07/02 12:36:03;;;;;;;9.70;6.22;;;768.90;793.60;;;;;;4994731;28;20029;-80
2022/07/02 12:38:29;;;;;;;7.60;5.55;;;;;;;;;;5014890;28;20025;-80
2022/07/02 12:41:01;;;;;;;11.85;5.57;;;;;;;;;;5012223;28;20044;-81
2022/07/02 12:43:27;;;;;;;9.40;5.32;;;;;;;;;;4995143;28;20044;-80
2022/07/02 12:46:04;;;;;;;16.88;5.43;;;;;;;;;;5014656;28;20040;-81
2022/07/02 12:48:30;;;;;;;10.43;4.93;;;;;;;;;;5006154;28;20024;-82
2022/07/02 12:50:56;;;;;;;12.30;5.72;;;;;;;;;;5001492;28;20050;-81
2022/07/02 12:53:23;;;;;;;10.18;5.15;;;;;;;;;;5032347;28;20048;-81
2022/07/02 12:55:58;;;;;;;18.40;8.95;;;;;;;;;;5014670;28;20026;-80
2022/07/02 12:58:24;;;;;;;13.30;6.75;;;;;;;;;;5001348;28;20437;-79
2022/07/02 13:00:51;;;;;;;21.42;5.85;;;;;;;;;;5014396;28;20067;-80
2022/07/02 13:03:18;;;;;;;7.85;4.45;;;;;;;;;;5014199;28;20021;-80
2022/07/02 13:05:47;;;;;;;15.50;5.18;;;;;;;;;;5032128;28;20029;-80
2022/07/02 13:08:13;;;;;;;9.07;4.10;;;768.50;768.00;;;;;;5014082;28;20010;-81
2022/07/02 13:10:40;;;;;;;8.88;4.72;;;768.30;768.00;;;;;;5013938;28;20117;-81
2022/07/02 13:13:07;;;;;;;11.18;4.88;;;768.30;768.00;;;;;;5014022;28;20068;-80
2022/07/02 13:15:33;;;;;;;10.00;4.70;;;768.60;768.00;;;;;;5014734;28;20528;-80
2022/07/02 13:17:59;;;;;;;6.97;5.00;;;768.80;742.40;;;;;;5031753;28;20028;-80
2022/07/02 13:20:24;;;;;;;5.38;3.88;;;793.70;742.40;;;;;;5014138;28;20384;-79
2022/07/02 13:22:50;;;;;;;8.68;4.03;;;768.70;742.40;;;;;;5011612;28;20389;-80
2022/07/02 13:25:17;;;;;;;9.73;5.00;;;793.80;742.40;;;;;;5011879;28;20024;-78
2022/07/02 13:27:43;;;;;;;13.65;5.00;;;;;;;;;;5002097;28;20491;-79
2022/07/02 13:30:10;;;;;;;11.20;5.03;;;;;;;;;;5020356;28;20022;-79
2022/07/02 13:32:36;;;;;;;13.02;5.50;;;;;;;;;;5010247;28;20032;-79
2022/07/02 13:35:03;;;;;;;25.17;6.20;;;;;;;;;;5000692;28;20403;-81
2022/07/02 13:37:29;;;;;;;8.75;4.15;;;;;;;;;;5006050;28;20030;-80
2022/07/02 13:39:55;;;;;;;11.90;4.63;;;;;;;;;;5009147;28;20026;-81
2022/07/02 13:42:21;;;;;;;5.22;4.18;;;;;;;;;;5010157;28;20049;-80
2022/07/02 13:44:48;;;;;;;13.80;5.13;;;;;;;;;;5021038;28;20025;-80
2022/07/02 13:47:14;;;;;;;9.88;5.35;;;;;;;;;;5020355;28;20021;-79
2022/07/02 13:49:40;;;;;;;7.47;4.07;;;;;;;;;;5007607;28;20061;-82
2022/07/02 13:52:06;;;;;;;10.40;4.40;;;;;;;;;;5017408;28;20026;-81
2022/07/02 13:54:32;;;;;;;11.27;4.10;;;;;;;;;;5019276;28;20083;-80
2022/07/02 13:56:59;;;;;;;15.32;3.88;;;;;;;;;;5020724;28;20187;-83
2022/07/02 13:59:25;;;;;;;13.43;5.10;;;;;;;;;;5020186;28;20041;-80
2022/07/02 14:01:51;;;;;;;8.63;4.07;;;870.60;460.80;;;;;;5038301;28;20105;-84
2022/07/02 14:04:17;;;;;;;13.77;5.38;;;870.50;460.80;;;;;;5020531;28;20112;-82